National Oceanic Atmosphere Administration National Weather Service Headquarters National Weather Service Headquarters
NOAA logo WFO Anchorage Scalable transition graphic NWS logo
Transition from title bar to navgation bar   Aviation Weather 09 AKDT 
blankspace Home   |   Mobile   |   Social Media   |   Mesonet   |   Surface Map   |   Radar   |   Submit Storm Reports =17 GMT 

LocalForecast by City, St or Zip Code

spacer

Forecasts/Products
  Public
  Forecast Discussion
    - With Glossary
  Aviation
  Marine
  Hydrology(RFC)
  Rivers & Lakes AHPS
  Ice Desk
  TV Weather
  Fire Weather
  Avalanche
  Travel 511
  Graphical
  xml logo RSS Feeds
  Marine FTPMail

spacer

Data
  Mesonet
  Model Graphics
  Local Model
  Observations
  Marine Obs
  Satellite/Radar
  Vent Factor
  Soaring Index
  Weather Links

spacer

Climate
  PAFC Climate
  Interactive Climate
  PAFC Records
  Local
  National
  More

spacer

Outreach
  About Us
  Community Outreach
  Kids' Page
  Tour/Speaker Request
  Weather Classroom
  Social Media

spacer

Reports
  COOP Observers
  Local Storm Reports
  Spotter Page
  Submit a Storm Report

spacer

Miscellaneous
  Archived Alaska Weather Stories
  Student Career Opportunities
  Research Papers

spacer

Print Friendly/
Low Bandwidth

  Public Forecasts
  Marine Forecasts

spacer

Contact Us
  mailto pafcweb

spacer

Facebook Follow the National Weather Service in Alaska on Twitter
USA.gov is the U.S. government's official web portal to all federal, state and local government web resources and services.


 ICAO ID:   AAWU Graphics

Internet access to TAFs and METAR observations is for planning purposes only. We can not guarantee the timeliness of internet products. Before flying please get a formal pilot briefing (1-800-992-7433) and ALWAYS file a Flight Plan!Pilot briefings are provided to licensed aircraft pilots, ONLY! Others may not use the above number to obtain weather information.

Check out the Key to TAFs and METARs for help with decoding the information.

A 12 hour summary of TAFs can be found here.

PAKN TAF
PAKN 221529Z 2215/2312  20005KT P6SM -SHRA SCT008 OVC025
      TEMPO 2215/2218 BKN008
     FM222100 22008KT P6SM -SHRA SCT015 BKN025
     FM230400 23010G16KT P6SM -SHRA BKN015 OVC025=


PAKN 221716Z 22004KT 6SM -RA BR BKN006 OVC016 11/11 A2995 RMK AO2
     P0004=
PAKN 221716Z 22004KT 6SM -RA BR BKN006 OVC016 11/11 A2995=
METAR PAKN 221654Z 21003KT 2 1/2SM RA BR BKN006 OVC012 11/11 A2995
    RMK AO2 RAB21 SLP142 P0002 T01110111=
METAR PAKN 221654Z 21003KT 2 1/2SM RA BR BKN006 OVC012 11/11 A2995=
METAR PAKN 221554Z 15003KT 9SM BKN006 OVC055 10/10 A2995 RMK AO2
     RAB16E41 CIG 003V015 SLP140 P0000 T01000100=
METAR PAKN 221554Z 15003KT 9SM BKN006 OVC055 10/10 A2995=
SPECI PAKN 221501Z 20004KT 8SM OVC008 09/09 A2995 RMK AO2=
PAKN 221501Z 20004KT 8SM OVC008 09/09 A2995=
METAR PAKN 221454Z 20004KT 7SM FEW002 BKN039 09/09 A2995 RMK AO2 SLP142
     T00940094 58008=
METAR PAKN 221454Z 20004KT 7SM FEW002 BKN039 09/09 A2995=
SPECI PAKN 221423Z 22004KT 3SM BR SCT002 BKN037 09/09 A2996 RMK AO2=
PAKN 221423Z 22004KT 3SM BR SCT002 BKN037 09/09 A2996=
SPECI PAKN 221417Z 20003KT 1SM BR SCT002 BKN037 09/09 A2996 RMK AO2=
PAKN 221417Z 20003KT 1SM BR SCT002 BKN037 09/09 A2996=
METAR PAKN 221354Z 21003KT 1/4SM FG SCT002 OVC037 09/09 A2996 RMK AO2
     SLP146 T00890089=
METAR PAKN 221354Z 21003KT 1/4SM FG SCT002 OVC037 09/09 A2996=
SPECI PAKN 221341Z 23003KT 3/4SM BR SCT002 OVC037 09/09 A2997 RMK
    AO2=
PAKN 221341Z 23003KT 3/4SM BR SCT002 OVC037 09/09 A2997=
SPECI PAKN 221314Z 00000KT 9SM FEW004 SCT037 BKN150 09/09 A2997 RMK
     AO2=
PAKN 221314Z 00000KT 9SM FEW004 SCT037 BKN150 09/09 A2997=


National Weather Service
Anchorage Forecast Office
6930 Sand Lake Road
Anchorage, Ak 99502
(907) 266-5105 M-F/7-5pm
About Us
Career Opportunities
Glossary
Disclaimer
Privacy Policy
Credits
Alaska Weather Information Line:
1-800-472-0391